createdAt,value
2019-02-24T00:01:14.561Z,99.90
2019-02-24T00:04:38.316Z,99.90
2019-02-24T00:08:03.100Z,99.90
2019-02-24T00:11:27.099Z,99.90
2019-02-24T00:14:51.180Z,99.90
2019-02-24T00:18:15.588Z,99.90
2019-02-24T00:21:39.456Z,99.90
2019-02-24T00:25:03.543Z,99.90
2019-02-24T00:28:27.398Z,99.90
2019-02-24T00:31:51.361Z,99.90
2019-02-24T00:35:15.108Z,99.90
2019-02-24T00:38:39.027Z,99.90
2019-02-24T00:42:03.153Z,99.90
2019-02-24T00:45:27.003Z,99.90
2019-02-24T00:48:50.851Z,99.90
2019-02-24T00:52:15.401Z,99.90
2019-02-24T00:55:39.450Z,99.90
2019-02-24T00:59:03.300Z,99.90
2019-02-24T01:02:27.136Z,99.90
2019-02-24T01:05:50.992Z,99.90
2019-02-24T01:09:14.874Z,99.90
2019-02-24T01:12:38.836Z,99.90
2019-02-24T01:16:02.768Z,99.90
2019-02-24T01:19:26.606Z,99.90
2019-02-24T01:22:50.534Z,99.90
2019-02-24T01:26:14.387Z,99.90
2019-02-24T01:29:38.356Z,99.90
2019-02-24T01:33:02.323Z,99.90
2019-02-24T01:36:26.083Z,99.90
2019-02-24T01:39:49.883Z,99.90
2019-02-24T01:43:13.623Z,99.90
2019-02-24T01:46:37.353Z,99.90
2019-02-24T01:50:01.164Z,99.90
2019-02-24T01:53:24.999Z,99.90
2019-02-24T01:56:48.758Z,99.90
2019-02-24T02:00:12.713Z,99.90
2019-02-24T02:03:36.566Z,99.90
2019-02-24T02:07:00.304Z,99.90
2019-02-24T02:10:24.007Z,99.90
2019-02-24T02:13:47.878Z,99.90
2019-02-24T02:17:12.873Z,99.90
2019-02-24T02:20:36.774Z,99.90
2019-02-24T02:24:00.551Z,99.90
2019-02-24T02:27:24.451Z,99.90
2019-02-24T02:30:48.206Z,99.90
2019-02-24T02:34:12.128Z,99.90
2019-02-24T02:37:35.914Z,99.90
2019-02-24T02:40:59.838Z,99.90
2019-02-24T02:44:23.611Z,99.90
2019-02-24T02:47:47.673Z,99.90
2019-02-24T02:51:11.401Z,99.90
2019-02-24T02:54:35.398Z,99.90
2019-02-24T02:57:59.123Z,99.90
2019-02-24T03:01:23.103Z,99.90
2019-02-24T03:04:47.008Z,99.90
2019-02-24T03:08:12.461Z,99.90
2019-02-24T03:11:36.146Z,99.90
2019-02-24T03:14:59.871Z,99.90
2019-02-24T03:18:23.795Z,99.90
2019-02-24T03:21:47.569Z,99.90
2019-02-24T03:25:12.533Z,99.90
2019-02-24T03:28:36.243Z,99.90
2019-02-24T03:32:00.443Z,99.90
2019-02-24T03:35:24.390Z,99.90
2019-02-24T03:38:48.350Z,99.90
2019-02-24T03:42:12.147Z,99.90
2019-02-24T03:45:36.008Z,99.90
2019-02-24T03:48:59.854Z,99.90
2019-02-24T03:52:23.733Z,99.90
2019-02-24T03:55:47.467Z,99.90
2019-02-24T03:59:15.287Z,99.90
2019-02-24T04:02:37.823Z,99.90
2019-02-24T04:06:01.778Z,99.90
2019-02-24T04:09:25.552Z,99.90
2019-02-24T04:12:49.327Z,99.90
2019-02-24T04:16:13.201Z,99.90
2019-02-24T04:19:37.022Z,99.90
2019-02-24T04:23:00.773Z,99.90
2019-02-24T04:26:24.563Z,99.90
2019-02-24T04:29:48.232Z,99.90
2019-02-24T04:33:11.995Z,99.90
2019-02-24T04:36:35.753Z,99.90
2019-02-24T04:39:59.546Z,99.90
2019-02-24T04:43:23.439Z,99.90
2019-02-24T04:46:47.136Z,99.90
2019-02-24T04:50:11.023Z,99.90
2019-02-24T04:53:34.982Z,99.90
2019-02-24T04:56:58.853Z,99.90
2019-02-24T05:00:22.746Z,99.90
2019-02-24T05:03:46.483Z,99.90
2019-02-24T05:07:10.254Z,99.90
2019-02-24T05:10:34.004Z,99.90
2019-02-24T05:13:57.733Z,99.90
2019-02-24T05:17:21.472Z,99.90
2019-02-24T05:20:45.302Z,99.90
2019-02-24T05:24:09.317Z,99.90
2019-02-24T05:27:33.382Z,99.90
2019-02-24T05:30:57.093Z,99.90
2019-02-24T05:34:20.856Z,99.90
2019-02-24T05:37:44.608Z,99.90
2019-02-24T05:41:08.478Z,99.90
2019-02-24T05:44:32.361Z,99.90
2019-02-24T05:47:56.147Z,99.90
2019-02-24T05:51:19.910Z,99.90
2019-02-24T05:54:43.837Z,99.90
2019-02-24T05:58:10.777Z,99.90
2019-02-24T06:01:34.556Z,99.90
2019-02-24T06:04:58.956Z,99.90
2019-02-24T06:08:23.277Z,99.90
2019-02-24T06:11:47.065Z,99.90
2019-02-24T06:15:10.808Z,99.90
2019-02-24T06:18:34.758Z,99.90
2019-02-24T06:21:58.636Z,99.90
2019-02-24T06:25:24.073Z,99.90
2019-02-24T06:28:47.823Z,99.90
2019-02-24T06:32:11.597Z,99.90
2019-02-24T06:35:36.059Z,99.90
2019-02-24T06:38:59.948Z,99.90
2019-02-24T06:42:23.725Z,99.90
2019-02-24T06:45:50.244Z,99.90
2019-02-24T06:49:16.564Z,99.90
2019-02-24T06:52:40.563Z,99.90
2019-02-24T06:56:05.297Z,99.90
2019-02-24T06:59:29.093Z,99.90
2019-02-24T07:02:52.854Z,99.90
2019-02-24T07:06:16.994Z,99.90
2019-02-24T07:09:40.674Z,99.90
2019-02-24T07:13:05.953Z,99.90
2019-02-24T07:16:29.731Z,99.90
2019-02-24T07:19:53.557Z,99.90
2019-02-24T07:23:17.400Z,99.90
2019-02-24T07:26:41.369Z,99.90
2019-02-24T07:30:07.788Z,99.90
2019-02-24T07:33:31.576Z,99.90
2019-02-24T07:36:55.730Z,99.90
2019-02-24T07:40:19.600Z,99.90
2019-02-24T07:43:43.344Z,99.90
2019-02-24T07:47:07.053Z,99.90
2019-02-24T07:50:30.806Z,99.90
2019-02-24T07:53:54.911Z,99.90
2019-02-24T07:57:18.664Z,99.90
2019-02-24T08:00:42.347Z,99.90
2019-02-24T08:04:06.113Z,99.90
2019-02-24T08:07:29.851Z,99.90
2019-02-24T08:10:53.646Z,99.90
2019-02-24T08:14:17.551Z,99.90
2019-02-24T08:17:41.446Z,99.90
2019-02-24T08:21:05.276Z,99.90
2019-02-24T08:24:29.261Z,99.90
2019-02-24T08:27:55.437Z,99.90
2019-02-24T08:31:18.729Z,99.90
2019-02-24T08:34:42.727Z,99.90
2019-02-24T08:38:06.476Z,99.90
2019-02-24T08:41:30.463Z,99.90
2019-02-24T08:44:54.416Z,99.90
2019-02-24T08:48:19.222Z,99.40
2019-02-24T08:51:43.496Z,99.90
2019-02-24T08:55:08.211Z,99.90
2019-02-24T08:58:31.980Z,99.90
2019-02-24T09:01:55.791Z,99.90
2019-02-24T09:05:19.643Z,99.90
2019-02-24T09:08:43.744Z,99.90
2019-02-24T09:12:07.544Z,99.90
2019-02-24T09:15:31.390Z,99.90
2019-02-24T09:18:55.241Z,99.90
2019-02-24T09:22:19.159Z,99.90
2019-02-24T09:25:43.309Z,99.90
2019-02-24T09:29:07.013Z,99.90
2019-02-24T09:32:30.694Z,99.90
2019-02-24T09:35:55.254Z,99.70
2019-02-24T09:39:19.212Z,98.20
2019-02-24T09:42:43.035Z,98.00
2019-02-24T09:46:06.886Z,94.80
2019-02-24T09:49:33.643Z,93.10
2019-02-24T09:52:58.394Z,93.50
2019-02-24T09:56:22.266Z,91.90
2019-02-24T09:59:46.579Z,90.40
2019-02-24T10:03:10.668Z,95.10
2019-02-24T10:06:34.640Z,93.70
2019-02-24T10:09:58.779Z,93.80
2019-02-24T10:13:23.134Z,91.10
2019-02-24T10:16:47.616Z,91.50
2019-02-24T10:20:12.379Z,97.00
2019-02-24T10:23:36.594Z,96.50
2019-02-24T10:27:00.887Z,92.70
2019-02-24T10:30:24.907Z,90.80
2019-02-24T10:33:48.950Z,93.50
2019-02-24T10:37:12.972Z,86.80
2019-02-24T10:40:36.867Z,79.70
2019-02-24T10:44:00.919Z,83.30
2019-02-24T10:47:24.792Z,87.20
2019-02-24T10:50:48.629Z,79.00
2019-02-24T10:54:12.432Z,87.40
2019-02-24T10:57:36.220Z,76.30
2019-02-24T11:01:01.020Z,62.80
2019-02-24T11:04:25.035Z,58.00
2019-02-24T11:07:48.900Z,52.60
2019-02-24T11:11:12.894Z,50.20
2019-02-24T11:14:36.868Z,46.00
2019-02-24T11:18:01.567Z,43.90
2019-02-24T11:21:25.555Z,41.00
2019-02-24T11:24:49.699Z,39.70
2019-02-24T11:28:16.037Z,42.70
2019-02-24T11:31:41.006Z,43.20
2019-02-24T11:35:09.123Z,40.50
2019-02-24T11:38:36.273Z,40.20
2019-02-24T11:42:00.306Z,41.00
2019-02-24T11:45:24.989Z,41.30
2019-02-24T11:48:48.888Z,42.40
2019-02-24T11:52:12.981Z,43.70
2019-02-24T11:55:37.156Z,45.90
2019-02-24T11:59:01.151Z,48.20
2019-02-24T12:02:34.331Z,50.10
2019-02-24T12:05:52.961Z,52.00
2019-02-24T12:09:16.788Z,50.10
2019-02-24T12:12:40.833Z,49.40
2019-02-24T12:16:04.966Z,47.80
2019-02-24T12:19:29.756Z,45.70
2019-02-24T12:22:53.836Z,46.00
2019-02-24T12:26:19.371Z,45.90
2019-02-24T12:29:43.262Z,48.10
2019-02-24T12:33:07.628Z,49.40
2019-02-24T12:36:31.864Z,48.60
2019-02-24T12:39:58.035Z,47.70
2019-02-24T12:43:23.256Z,49.90
2019-02-24T12:46:47.423Z,49.40
2019-02-24T12:50:12.626Z,50.90
2019-02-24T12:53:36.528Z,48.00
2019-02-24T12:57:01.319Z,46.20
2019-02-24T13:00:26.904Z,46.60
2019-02-24T13:03:50.903Z,47.50
2019-02-24T13:07:14.975Z,47.60
2019-02-24T13:10:38.904Z,49.00
2019-02-24T13:14:03.025Z,48.10
2019-02-24T13:17:27.249Z,49.90
2019-02-24T13:20:51.161Z,47.40
2019-02-24T13:24:15.367Z,47.50
2019-02-24T13:27:39.350Z,47.50
2019-02-24T13:31:04.433Z,45.20
2019-02-24T13:34:30.731Z,45.10
2019-02-24T13:37:54.863Z,44.10
2019-02-24T13:41:18.843Z,43.00
2019-02-24T13:44:44.304Z,39.60
2019-02-24T13:48:08.265Z,39.90
2019-02-24T13:51:32.386Z,39.80
2019-02-24T13:54:56.100Z,38.40
2019-02-24T13:58:19.883Z,35.80
2019-02-24T14:01:44.318Z,35.40
2019-02-24T14:05:10.043Z,35.00
2019-02-24T14:08:34.635Z,35.80
2019-02-24T14:11:59.381Z,34.80
2019-02-24T14:15:23.271Z,34.60
2019-02-24T14:18:47.473Z,35.90
2019-02-24T14:22:11.454Z,38.90
2019-02-24T14:25:35.973Z,40.70
2019-02-24T14:29:00.453Z,42.70
2019-02-24T14:32:32.696Z,43.20
2019-02-24T14:35:49.835Z,44.20
2019-02-24T14:39:13.811Z,42.90
2019-02-24T14:42:37.833Z,42.10
2019-02-24T14:46:01.933Z,42.30
2019-02-24T14:49:25.774Z,41.90
2019-02-24T14:52:49.790Z,43.40
2019-02-24T14:56:14.076Z,42.70
2019-02-24T14:59:37.904Z,43.70
2019-02-24T15:03:02.519Z,44.70
2019-02-24T15:06:26.306Z,44.50
2019-02-24T15:09:49.975Z,46.30
2019-02-24T15:13:15.201Z,47.80
2019-02-24T15:16:39.509Z,48.60
2019-02-24T15:20:03.534Z,50.00
2019-02-24T15:23:28.408Z,51.00
2019-02-24T15:26:52.188Z,50.30
2019-02-24T15:30:27.650Z,50.60
2019-02-24T15:33:51.808Z,50.40
2019-02-24T15:37:15.631Z,51.90
2019-02-24T15:40:39.564Z,52.00
2019-02-24T15:44:03.549Z,53.90
2019-02-24T15:47:27.855Z,56.10
2019-02-24T15:50:52.591Z,58.10
2019-02-24T15:54:16.404Z,61.70
2019-02-24T15:57:40.811Z,62.10
2019-02-24T16:01:06.519Z,62.10
2019-02-24T16:04:30.215Z,62.60
2019-02-24T16:07:54.195Z,63.90
2019-02-24T16:11:18.242Z,71.20
2019-02-24T16:14:42.095Z,64.10
2019-02-24T16:18:06.259Z,63.90
2019-02-24T16:21:30.710Z,65.30
2019-02-24T16:24:54.598Z,69.00
2019-02-24T16:28:18.561Z,68.50
2019-02-24T16:31:42.484Z,69.50
2019-02-24T16:35:09.710Z,70.90
2019-02-24T16:38:33.487Z,71.60
2019-02-24T16:41:57.292Z,78.10
2019-02-24T16:45:21.157Z,75.20
2019-02-24T16:48:45.234Z,74.50
2019-02-24T16:52:09.065Z,75.30
2019-02-24T16:55:33.706Z,76.20
2019-02-24T16:58:57.490Z,83.50
2019-02-24T17:02:23.018Z,83.20
2019-02-24T17:05:47.031Z,82.90
2019-02-24T17:09:11.292Z,83.90
2019-02-24T17:12:35.202Z,86.80
2019-02-24T17:15:59.085Z,85.10
2019-02-24T17:19:23.589Z,91.50
2019-02-24T17:22:47.541Z,92.00
2019-02-24T17:26:11.436Z,91.10
2019-02-24T17:29:36.088Z,92.10
2019-02-24T17:32:59.919Z,89.40
2019-02-24T17:36:23.817Z,91.30
2019-02-24T17:39:48.699Z,92.70
2019-02-24T17:43:12.663Z,92.50
2019-02-24T17:46:36.514Z,93.20
2019-02-24T17:50:00.446Z,95.10
2019-02-24T17:53:25.244Z,94.10
2019-02-24T17:56:49.349Z,95.90
2019-02-24T18:00:25.964Z,94.40
2019-02-24T18:03:54.635Z,95.20
2019-02-24T18:07:18.536Z,98.00
2019-02-24T18:10:42.341Z,96.40
2019-02-24T18:14:06.112Z,98.00
2019-02-24T18:17:29.934Z,99.20
2019-02-24T18:20:54.029Z,99.90
2019-02-24T18:24:17.802Z,99.90
2019-02-24T18:27:41.619Z,99.90
2019-02-24T18:31:05.476Z,99.90
2019-02-24T18:34:29.400Z,99.90
2019-02-24T18:37:54.966Z,99.90
2019-02-24T18:41:18.714Z,99.90
2019-02-24T18:44:42.552Z,99.90
2019-02-24T18:48:06.552Z,99.90
2019-02-24T18:51:32.976Z,99.90
2019-02-24T18:54:57.137Z,99.90
2019-02-24T18:58:21.212Z,99.90
2019-02-24T19:01:45.227Z,99.90
2019-02-24T19:05:09.368Z,99.90
2019-02-24T19:08:33.911Z,99.90
2019-02-24T19:12:02.356Z,99.90
2019-02-24T19:15:26.675Z,99.90
2019-02-24T19:18:52.410Z,99.90
2019-02-24T19:22:16.983Z,99.90
2019-02-24T19:25:41.520Z,99.90
2019-02-24T19:29:05.486Z,99.90
2019-02-24T19:32:29.319Z,99.90
2019-02-24T19:35:53.371Z,99.90
2019-02-24T19:39:17.592Z,99.90
2019-02-24T19:42:41.451Z,99.90
2019-02-24T19:46:05.299Z,99.90
2019-02-24T19:49:32.919Z,99.90
2019-02-24T19:52:56.662Z,99.90
2019-02-24T19:56:20.459Z,99.90
2019-02-24T19:59:44.397Z,99.90
2019-02-24T20:03:08.263Z,99.90
2019-02-24T20:06:33.068Z,99.90
2019-02-24T20:09:57.026Z,99.90
2019-02-24T20:13:20.788Z,99.90
2019-02-24T20:16:46.981Z,99.90
2019-02-24T20:20:13.898Z,99.90
2019-02-24T20:23:37.984Z,99.90
2019-02-24T20:27:01.820Z,99.90
2019-02-24T20:30:36.805Z,99.90
2019-02-24T20:34:00.653Z,99.90
2019-02-24T20:37:25.353Z,99.90
2019-02-24T20:40:49.208Z,99.90
2019-02-24T20:44:13.285Z,99.90
2019-02-24T20:47:37.227Z,99.90
2019-02-24T20:51:00.957Z,99.90
2019-02-24T20:54:25.476Z,99.90
2019-02-24T20:57:49.487Z,99.90
2019-02-24T21:01:13.434Z,99.90
2019-02-24T21:04:37.523Z,99.90
2019-02-24T21:08:01.728Z,99.90
2019-02-24T21:11:25.602Z,99.90
2019-02-24T21:14:49.422Z,99.90
2019-02-24T21:18:13.401Z,99.90
2019-02-24T21:21:37.161Z,99.90
2019-02-24T21:25:01.976Z,99.90
2019-02-24T21:28:26.114Z,99.90
2019-02-24T21:31:50.669Z,99.90
2019-02-24T21:35:14.579Z,99.90
2019-02-24T21:38:38.724Z,99.90
2019-02-24T21:42:02.479Z,99.90
2019-02-24T21:45:27.438Z,99.90
2019-02-24T21:48:51.303Z,99.90
2019-02-24T21:52:15.338Z,99.90
2019-02-24T21:55:41.825Z,99.90
2019-02-24T21:59:05.795Z,99.90
2019-02-24T22:02:29.698Z,99.90
2019-02-24T22:05:53.624Z,99.90
2019-02-24T22:09:17.477Z,99.90
2019-02-24T22:12:41.278Z,99.90
2019-02-24T22:16:06.081Z,99.90
2019-02-24T22:19:29.906Z,99.90
2019-02-24T22:22:53.730Z,99.90
2019-02-24T22:26:17.568Z,99.90
2019-02-24T22:29:41.486Z,99.90
2019-02-24T22:33:05.346Z,99.90
2019-02-24T22:36:29.204Z,99.90
2019-02-24T22:39:52.988Z,99.90
2019-02-24T22:43:17.185Z,99.90
2019-02-24T22:46:41.062Z,99.90
2019-02-24T22:50:06.083Z,99.90
2019-02-24T22:53:29.878Z,99.90
2019-02-24T22:56:53.775Z,99.90
2019-02-24T23:00:53.718Z,99.90
2019-02-24T23:04:17.685Z,99.90
2019-02-24T23:07:41.668Z,99.90
2019-02-24T23:11:05.862Z,99.90
2019-02-24T23:14:29.826Z,99.90
2019-02-24T23:17:53.626Z,99.90
2019-02-24T23:21:17.518Z,99.90
2019-02-24T23:24:42.243Z,99.90
2019-02-24T23:28:06.116Z,99.90
2019-02-24T23:31:29.921Z,99.90
2019-02-24T23:34:53.798Z,99.90
2019-02-24T23:38:19.341Z,99.90
2019-02-24T23:41:45.005Z,99.90
2019-02-24T23:45:11.076Z,99.90
2019-02-24T23:48:34.817Z,99.90
2019-02-24T23:51:58.757Z,99.90
2019-02-24T23:55:22.498Z,99.90
2019-02-24T23:58:46.446Z,99.90
